Time;durP1;ratioP1;P1;durP2;ratioP2;P2;SDS_P1;SDS_P2;PMS_P1;PMS_P2;Temp;Humidity;BMP_temperature;BMP_pressure;BME280_temperature;BME280_humidity;BME280_pressure;Samples;Min_cycle;Max_cycle;Signal;HPM_P1;HPM_P2
2021/06/19 00:01:30;;;;;;;8.57;1.40;;;;;;;;;;4294593;33;20546;-80
2021/06/19 00:03:59;;;;;;;9.25;1.83;;;;;;;;;;4297930;33;20115;-85
2021/06/19 00:06:29;;;;;;;8.82;1.50;;;;;;;;;;4294218;33;20490;-84
2021/06/19 00:08:58;;;;;;;11.65;2.12;;;;;;;;;;4296522;33;20549;-81
2021/06/19 00:11:27;;;;;;;9.95;1.67;;;;;;;;;;4295780;33;20057;-83
2021/06/19 00:13:57;;;;;;;8.80;1.60;;;;;;;;;;4293457;33;20131;-79
2021/06/19 00:16:28;;;;;;;9.73;1.80;;;;;;;;;;4295921;33;20096;-82
2021/06/19 00:18:58;;;;;;;8.15;1.50;;;;;;;;;;4299047;33;20625;-82
2021/06/19 00:21:26;;;;;;;11.15;1.90;;;;;;;;;;4295574;33;20422;-78
2021/06/19 00:23:57;;;;;;;9.35;1.80;;;;;;;;;;4297062;33;20075;-86
2021/06/19 00:26:29;;;;;;;6.95;1.45;;;;;;;;;;4290550;33;20095;-83
2021/06/19 00:28:59;;;;;;;8.48;1.48;;;;;;;;;;4295381;33;20432;-80
2021/06/19 00:31:30;;;;;;;9.90;2.08;;;;;;;;;;4292203;33;20099;-83
2021/06/19 00:34:01;;;;;;;7.47;1.87;;;;;;;;;;4290372;33;20045;-85
2021/06/19 00:36:32;;;;;;;10.48;2.30;;;;;;;;;;4283239;33;20079;-83
2021/06/19 00:39:00;;;;;;;10.55;2.30;;;;;;;;;;4296301;33;20131;-83
2021/06/19 00:41:31;;;;;;;10.73;1.77;;;;;;;;;;4294243;33;20184;-85
2021/06/19 00:44:03;;;;;;;10.10;1.73;;;;;;;;;;4293518;33;20455;-80
2021/06/19 00:46:32;;;;;;;13.38;1.80;;;;;;;;;;4276981;33;22229;-82
2021/06/19 00:49:04;;;;;;;11.27;2.80;;;;;;;;;;4288418;33;20444;-81
2021/06/19 00:51:32;;;;;;;36.83;34.17;;;;;;;;;;4290557;33;20498;-83
2021/06/19 00:54:06;;;;;;;64.78;60.12;;;;;;;;;;4292061;33;20088;-83
2021/06/19 00:56:37;;;;;;;53.03;49.30;;;;;;;;;;4301724;33;20135;-84
2021/06/19 00:59:09;;;;;;;35.30;33.13;;;;;;;;;;4288611;33;20075;-82
2021/06/19 01:01:40;;;;;;;18.98;17.15;;;;;;;;;;4290947;33;20134;-85
2021/06/19 01:04:09;;;;;;;12.88;11.70;;;;;;;;;;4285527;33;20073;-78
2021/06/19 01:06:38;;;;;;;12.32;6.72;;;;;;;;;;4289706;33;20116;-84
2021/06/19 01:09:09;;;;;;;6.18;2.08;;;;;;;;;;4292617;33;20126;-81
2021/06/19 01:11:41;;;;;;;7.18;1.87;;;;;;;;;;4289343;33;20119;-80
2021/06/19 01:14:09;;;;;;;6.80;1.75;;;;;;;;;;4297815;33;20546;-80
2021/06/19 01:16:46;;;;;;;10.82;2.62;;;;;;;;;;4302050;33;20549;-83
2021/06/19 01:19:17;;;;;;;10.10;2.10;;;;;;;;;;4306346;33;20076;-81
2021/06/19 01:21:46;;;;;;;6.87;1.70;;;;;;;;;;4307980;33;20143;-85
2021/06/19 01:24:15;;;;;;;11.40;2.05;;;;;;;;;;4300925;33;20111;-78
2021/06/19 01:26:46;;;;;;;6.60;1.73;;;;;;;;;;4276817;33;20444;-82
2021/06/19 01:29:18;;;;;;;8.13;1.87;;;;;;;;;;4306619;33;20060;-83
2021/06/19 01:31:46;;;;;;;15.48;2.67;;;;;;;;;;4306035;33;20096;-87
2021/06/19 01:34:15;;;;;;;8.82;2.03;;;;;;;;;;4297175;33;20127;-85
2021/06/19 01:36:46;;;;;;;9.65;2.00;;;;;;;;;;4303198;33;20835;-85
2021/06/19 01:39:14;;;;;;;6.78;1.67;;;;;;;;;;4300735;33;20048;-89
2021/06/19 01:41:43;;;;;;;10.82;1.92;;;;;;;;;;4295405;33;20049;-83
2021/06/19 01:44:13;;;;;;;11.10;1.98;;;;;;;;;;4294113;33;20102;-83
2021/06/19 01:46:43;;;;;;;7.25;1.48;;;;;;;;;;4308326;33;20092;-81
2021/06/19 01:49:11;;;;;;;5.60;1.95;;;;;;;;;;4300970;33;20073;-85
2021/06/19 01:51:41;;;;;;;8.57;1.95;;;;;;;;;;4302628;33;20427;-84
2021/06/19 01:54:14;;;;;;;4.12;1.30;;;;;;;;;;4297248;33;20045;-84
2021/06/19 01:56:45;;;;;;;13.68;1.90;;;;;;;;;;4304683;33;20081;-82
2021/06/19 01:59:17;;;;;;;7.12;2.10;;;;;;;;;;4303209;33;20100;-79
2021/06/19 02:01:48;;;;;;;7.25;1.67;;;;;;;;;;4287010;33;20571;-82
2021/06/19 02:04:22;;;;;;;7.62;1.67;;;;;;;;;;4296255;33;20057;-85
2021/06/19 02:06:50;;;;;;;4.18;1.62;;;;;;;;;;4304581;33;20048;-81
2021/06/19 02:09:21;;;;;;;7.87;1.58;;;;;;;;;;4302818;33;20529;-79
2021/06/19 02:11:52;;;;;;;8.70;2.47;;;;;;;;;;4302092;33;20093;-80
2021/06/19 02:14:20;;;;;;;7.25;1.75;;;;;;;;;;4300009;33;20044;-81
2021/06/19 02:16:49;;;;;;;9.73;1.30;;;;;;;;;;4304858;33;20111;-81
2021/06/19 02:19:20;;;;;;;8.93;1.85;;;;;;;;;;4307058;33;20108;-80
2021/06/19 02:21:51;;;;;;;6.62;1.40;;;;;;;;;;4291466;33;20735;-86
2021/06/19 02:24:22;;;;;;;6.45;1.17;;;;;;;;;;4292406;33;20090;-81
2021/06/19 02:26:50;;;;;;;8.23;1.35;;;;;;;;;;4301336;33;20134;-81
2021/06/19 02:29:18;;;;;;;10.90;1.83;;;;;;;;;;4295811;33;20879;-82
2021/06/19 02:31:47;;;;;;;10.00;1.67;;;;;;;;;;4272053;33;20138;-81
2021/06/19 02:34:15;;;;;;;7.15;1.25;;;;;;;;;;4300720;33;20605;-80
2021/06/19 02:36:44;;;;;;;2.78;0.98;;;;;;;;;;4303783;33;20113;-79
2021/06/19 02:39:15;;;;;;;5.78;1.48;;;;;;;;;;4286689;33;20065;-85
2021/06/19 02:41:43;;;;;;;6.15;1.45;;;;;;;;;;4291060;33;20147;-80
2021/06/19 02:44:12;;;;;;;10.43;1.70;;;;;;;;;;4306313;33;20056;-82
2021/06/19 02:46:43;;;;;;;11.10;1.60;;;;;;;;;;4305813;33;20100;-85
2021/06/19 02:49:14;;;;;;;13.10;9.63;;;;;;;;;;4302686;33;20061;-80
2021/06/19 02:51:42;;;;;;;9.63;1.60;;;;;;;;;;4293717;33;20402;-80
2021/06/19 02:54:11;;;;;;;4.65;1.27;;;;;;;;;;4306640;33;20061;-83
2021/06/19 02:56:42;;;;;;;12.05;7.90;;;;;;;;;;4301057;33;20155;-80
2021/06/19 02:59:10;;;;;;;9.88;8.88;;;;;;;;;;4303895;33;20464;-83
2021/06/19 03:01:41;;;;;;;12.37;11.27;;;;;;;;;;4293584;33;20060;-82
2021/06/19 03:04:09;;;;;;;13.75;12.70;;;;;;;;;;4301187;33;20116;-82
2021/06/19 03:06:41;;;;;;;11.88;10.25;;;;;;;;;;4304495;33;20169;-79
2021/06/19 03:09:10;;;;;;;14.60;13.07;;;;;;;;;;4295822;33;20060;-83
2021/06/19 03:11:41;;;;;;;13.23;11.20;;;;;;;;;;4395465;27;20051;-95
2021/06/19 03:14:45;;;;;;;9.95;8.85;;;;;;;;;;4350443;32;20124;-95
2021/06/19 03:17:27;;;;;;;11.27;8.75;;;;;;;;;;4349357;32;20403;-96
2021/06/19 03:20:32;;;;;;;11.43;10.00;;;;;;;;;;4350725;32;20406;-95
2021/06/19 03:23:35;;;;;;;;;;;;;;;;;;;;;
2021/06/19 03:26:21;;;;;;;8.80;1.73;;;;;;;;;;4359313;32;20075;-94
2021/06/19 03:29:31;;;;;;;8.68;1.75;;;;;;;;;;4341448;32;20447;-95
2021/06/19 03:32:28;;;;;;;19.62;17.67;;;;;;;;;;4341439;32;20070;-96
2021/06/19 03:35:38;;;;;;;;;;;;;;;;;;4346604;32;20067;-94
2021/06/19 03:38:21;;;;;;;7.25;1.70;;;;;;;;;;4345993;32;20008;-94
2021/06/19 03:41:23;;;;;;;9.77;3.15;;;;;;;;;;4350975;32;20065;-96
2021/06/19 03:44:20;;;;;;;9.55;7.75;;;;;;;;;;4356792;32;20103;-96
2021/06/19 03:46:57;;;;;;;9.02;8.05;;;;;;;;;;4351757;32;20117;-94
2021/06/19 03:50:07;;;;;;;15.90;14.30;;;;;;;;;;4345320;33;20074;-95
2021/06/19 03:52:58;;;;;;;11.32;1.98;;;;;;;;;;4349180;32;20063;-96
2021/06/19 03:55:42;;;;;;;8.80;2.12;;;;;;;;;;4335024;33;20075;-95
2021/06/19 03:58:34;;;;;;;5.70;1.23;;;;;;;;;;4339250;33;20055;-95
2021/06/19 04:01:49;;;;;;;10.93;2.10;;;;;;;;;;4327129;32;20055;-95
2021/06/19 04:05:07;;;;;;;5.45;1.35;;;;;;;;;;4295494;33;20076;-95
2021/06/19 04:08:01;;;;;;;7.90;1.52;;;;;;;;;;4298394;33;20132;-96
2021/06/19 04:10:32;;;;;;;10.32;1.70;;;;;;;;;;4295729;33;20777;-94
2021/06/19 04:13:36;;;;;;;8.18;1.77;;;;;;;;;;4293135;33;20096;-94
2021/06/19 04:16:47;;;;;;;4.72;2.53;;;;;;;;;;4282804;33;20065;-96
2021/06/19 04:19:43;;;;;;;6.65;3.40;;;;;;;;;;4285136;33;20204;-95
2021/06/19 04:22:40;;;;;;;7.43;4.90;;;;;;;;;;4280007;33;20119;-95
2021/06/19 04:25:53;;;;;;;21.05;19.15;;;;;;;;;;4293073;33;20052;-96
2021/06/19 04:28:33;;;;;;;23.60;21.87;;;;;;;;;;4302535;33;20052;-96
2021/06/19 04:31:20;;;;;;;22.05;20.42;;;;;;;;;;4340098;32;20083;-94
2021/06/19 04:37:57;;;;;;;44.63;41.60;;;;;;;;;;4354912;33;20083;-95
2021/06/19 04:46:59;;;;;;;56.30;53.00;;;;;;;;;;4326398;33;20066;-96
2021/06/19 04:49:59;;;;;;;48.83;45.85;;;;;;;;;;4342476;32;20092;-95
2021/06/19 04:52:41;;;;;;;20.35;18.17;;;;;;;;;;4340589;32;20086;-95
2021/06/19 04:55:32;;;;;;;10.75;5.47;;;;;;;;;;4352753;32;20105;-95
2021/06/19 04:58:46;;;;;;;17.98;10.43;;;;;;;;;;4321678;32;20074;-96
2021/06/19 05:01:22;;;;;;;21.17;19.08;;;;;;;;;;4348962;32;20059;-95
2021/06/19 05:04:23;;;;;;;19.75;17.85;;;;;;;;;;4353953;32;20036;-96
2021/06/19 05:07:13;;;;;;;49.83;46.92;;;;;;;;;;4346937;33;20074;-94
2021/06/19 05:09:56;;;;;;;66.82;62.25;;;;;;;;;;4326793;33;20056;-95
2021/06/19 05:12:48;;;;;;;69.65;64.10;;;;;;;;;;4343302;32;20047;-96
2021/06/19 05:15:38;;;;;;;58.70;53.97;;;;;;;;;;4346969;32;20075;-94
2021/06/19 05:18:39;;;;;;;54.90;50.55;;;;;;;;;;4349978;32;20078;-94
2021/06/19 05:21:50;;;;;;;40.60;37.58;;;;;;;;;;4339382;32;20095;-96
2021/06/19 05:24:52;;;;;;;23.27;21.27;;;;;;;;;;4318465;33;20873;-94
2021/06/19 05:27:49;;;;;;;16.30;14.10;;;;;;;;;;4330378;33;20105;-95
2021/06/19 05:30:43;;;;;;;26.92;24.77;;;;;;;;;;4328125;33;20108;-95
2021/06/19 05:33:46;;;;;;;41.45;38.40;;;;;;;;;;4335382;33;20064;-94
2021/06/19 05:36:42;;;;;;;26.67;24.67;;;;;;;;;;4323136;33;20777;-94
2021/06/19 05:39:43;;;;;;;23.35;21.23;;;;;;;;;;4337848;33;20095;-96
2021/06/19 05:42:49;;;;;;;23.15;21.35;;;;;;;;;;4344696;32;20060;-96
2021/06/19 05:45:56;;;;;;;20.58;18.80;;;;;;;;;;4334720;33;20086;-95
2021/06/19 05:48:46;;;;;;;17.52;16.00;;;;;;;;;;4341429;32;20082;-96
2021/06/19 05:51:46;;;;;;;13.13;10.18;;;;;;;;;;4351196;32;20051;-95
2021/06/19 05:54:40;;;;;;;13.65;7.05;;;;;;;;;;4340247;32;20428;-95
2021/06/19 05:57:31;;;;;;;14.65;8.80;;;;;;;;;;4347922;32;20110;-96
2021/06/19 06:00:18;;;;;;;12.45;11.48;;;;;;;;;;4350603;32;20059;-94
2021/06/19 06:02:57;;;;;;;12.63;11.43;;;;;;;;;;4334485;33;20090;-96
2021/06/19 06:05:42;;;;;;;7.50;6.82;;;;;;;;;;4354845;32;20062;-96
2021/06/19 06:08:30;;;;;;;9.82;5.68;;;;;;;;;;4334549;32;20082;-95
2021/06/19 06:11:05;;;;;;;24.25;21.70;;;;;;;;;;4339354;33;20060;-95
2021/06/19 06:13:40;;;;;;;9.60;4.87;;;;;;;;;;4321345;33;20084;-96
2021/06/19 06:16:40;;;;;;;10.63;8.35;;;;;;;;;;4320823;33;20056;-96
2021/06/19 06:19:31;;;;;;;16.85;8.85;;;;;;;;;;4324106;33;20100;-96
2021/06/19 06:22:33;;;;;;;;;;;;;;;;;;;;;
2021/06/19 06:25:55;;;;;;;12.52;4.22;;;;;;;;;;4329379;33;20725;-96
2021/06/19 06:28:53;;;;;;;9.00;1.60;;;;;;;;;;4332930;33;20889;-95
2021/06/19 06:32:41;;;;;;;12.45;11.12;;;;;;;;;;4328688;33;20114;-96
2021/06/19 06:36:05;;;;;;;8.88;7.97;;;;;;;;;;4251684;33;20097;-96
2021/06/19 06:39:15;;;;;;;5.97;1.80;;;;;;;;;;4251536;33;20681;-95
2021/06/19 06:42:12;;;;;;;6.55;1.60;;;;;;;;;;4282804;33;20050;-96
2021/06/19 06:44:54;;;;;;;4.57;1.17;;;;;;;;;;4266116;33;20129;-96
2021/06/19 06:47:36;;;;;;;5.90;3.58;;;;;;;;;;4265931;33;20110;-96
2021/06/19 06:50:15;;;;;;;5.87;1.30;;;;;;;;;;4258485;33;20065;-96
2021/06/19 06:53:06;;;;;;;4.22;1.75;;;;;;;;;;4292611;33;20124;-96
2021/06/19 06:55:49;;;;;;;5.37;2.85;;;;;;;;;;4323628;33;20084;-96
2021/06/19 06:59:10;;;;;;;5.70;1.30;;;;;;;;;;4333791;33;20171;-95
2021/06/19 07:01:48;;;;;;;5.73;1.50;;;;;;;;;;4329224;33;20697;-96
2021/06/19 07:04:55;;;;;;;5.75;1.52;;;;;;;;;;4325388;33;20149;-96
2021/06/19 07:07:29;;;;;;;2.70;1.17;;;;;;;;;;4321862;33;20124;-95
2021/06/19 07:11:02;;;;;;;5.28;1.40;;;;;;;;;;4331716;33;20060;-96
2021/06/19 07:18:41;;;;;;;;;;;;;;;;;;;;;
2021/06/19 07:34:55;;;;;;;;;;;;;;;;;;;;;
2021/06/19 07:45:56;;;;;;;;;;;;;;;;;;;;;
2021/06/19 07:52:56;;;;;;;5.53;1.23;;;;;;;;;;4182369;34;20070;-96
2021/06/19 08:43:30;;;;;;;;;;;;;;;;;;;;;
2021/06/19 08:47:06;;;;;;;5.68;1.90;;;;;;;;;;4247512;33;20367;-96
2021/06/19 08:50:24;;;;;;;9.15;2.50;;;;;;;;;;4244630;33;20747;-96
2021/06/19 08:53:48;;;;;;;8.20;1.80;;;;;;;;;;4247170;33;20062;-96
2021/06/19 09:01:47;;;;;;;5.40;1.60;;;;;;;;;;4245837;33;20062;-96
2021/06/19 09:06:20;;;;;;;;;;;;;;;;;;;;;
2021/06/19 09:09:04;;;;;;;6.75;2.05;;;;;;;;;;4211329;34;20173;-85
2021/06/19 09:11:37;;;;;;;6.72;1.60;;;;;;;;;;4260414;33;20304;-82
2021/06/19 09:14:07;;;;;;;4.87;1.65;;;;;;;;;;4258002;33;20121;-83
2021/06/19 09:16:37;;;;;;;4.40;1.50;;;;;;;;;;4260785;33;20117;-85
2021/06/19 09:19:25;;;;;;;5.37;1.60;;;;;;;;;;4256071;33;20065;-80
2021/06/19 09:22:09;;;;;;;7.55;1.90;;;;;;;;;;4262264;33;20068;-80
2021/06/19 09:24:41;;;;;;;3.87;1.70;;;;;;;;;;4259613;33;20096;-81
2021/06/19 09:27:29;;;;;;;8.68;2.28;;;;;;;;;;4258888;33;20070;-82
2021/06/19 09:30:15;;;;;;;5.15;1.70;;;;;;;;;;4254824;33;20168;-84
2021/06/19 09:32:55;;;;;;;4.50;2.00;;;;;;;;;;4254411;33;20104;-83
2021/06/19 09:35:31;;;;;;;6.72;1.98;;;;;;;;;;4256420;33;20080;-85
2021/06/19 09:38:00;;;;;;;;;;;;;;;;;;4274002;33;20061;-80
2021/06/19 09:40:33;;;;;;;4.80;1.77;;;;;;;;;;4261611;33;20070;-80
2021/06/19 09:43:15;;;;;;;76.30;6.78;;;;;;;;;;4265000;33;20400;-84
2021/06/19 09:46:04;;;;;;;8.40;2.10;;;;;;;;;;4263807;33;20092;-83
2021/06/19 09:48:48;;;;;;;10.48;2.50;;;;;;;;;;4275535;33;20109;-80
2021/06/19 09:51:19;;;;;;;;;;;;;;;;;;4264312;33;20103;-81
2021/06/19 09:54:08;;;;;;;5.87;2.20;;;;;;;;;;4266858;33;20056;-80
2021/06/19 09:56:46;;;;;;;6.07;2.17;;;;;;;;;;4268492;33;20159;-77
2021/06/19 09:59:19;;;;;;;6.18;2.22;;;;;;;;;;4267499;33;20121;-85
2021/06/19 10:01:47;;;;;;;9.15;2.22;;;;;;;;;;4265938;33;20619;-81
2021/06/19 10:04:22;;;;;;;7.12;2.42;;;;;;;;;;4266495;33;20569;-81
2021/06/19 10:06:53;;;;;;;6.50;2.37;;;;;;;;;;4265919;33;20382;-85
2021/06/19 10:09:22;;;;;;;11.75;2.75;;;;;;;;;;4272503;33;20066;-81
2021/06/19 10:11:54;;;;;;;8.82;2.70;;;;;;;;;;4260619;33;20155;-84
2021/06/19 10:14:24;;;;;;;10.60;2.92;;;;;;;;;;4254456;33;20084;-85
2021/06/19 10:16:56;;;;;;;14.10;2.72;;;;;;;;;;4251438;33;20234;-82
2021/06/19 10:19:26;;;;;;;6.72;2.47;;;;;;;;;;4249370;33;20132;-83
2021/06/19 10:21:57;;;;;;;8.55;2.50;;;;;;;;;;4251376;33;20132;-81
2021/06/19 10:24:28;;;;;;;6.35;2.53;;;;;;;;;;4263063;33;21326;-80
2021/06/19 10:26:57;;;;;;;7.10;2.40;;;;;;;;;;4267950;33;20172;-83
2021/06/19 10:29:27;;;;;;;10.40;2.85;;;;;;;;;;4266933;33;20123;-84
2021/06/19 10:31:58;;;;;;;10.85;2.67;;;;;;;;;;4264554;33;20382;-84
2021/06/19 10:34:31;;;;;;;9.27;2.80;;;;;;;;;;4268561;33;20096;-83
2021/06/19 10:37:02;;;;;;;8.52;2.90;;;;;;;;;;4266122;33;20097;-84
2021/06/19 10:39:40;;;;;;;9.52;2.80;;;;;;;;;;4267736;33;20073;-83
2021/06/19 10:42:17;;;;;;;8.32;3.00;;;;;;;;;;4271090;33;20520;-84
2021/06/19 10:44:59;;;;;;;32.53;4.47;;;;;;;;;;4274756;33;20041;-81
2021/06/19 10:47:29;;;;;;;7.57;2.47;;;;;;;;;;4267757;33;20461;-85
2021/06/19 10:50:01;;;;;;;9.57;3.05;;;;;;;;;;4262263;33;20117;-88
2021/06/19 10:52:38;;;;;;;8.35;2.92;;;;;;;;;;4263409;33;20097;-82
2021/06/19 10:55:14;;;;;;;9.68;2.92;;;;;;;;;;4264389;33;20085;-82
2021/06/19 10:57:48;;;;;;;12.18;2.97;;;;;;;;;;4264200;33;20104;-84
2021/06/19 11:00:26;;;;;;;15.63;2.97;;;;;;;;;;4249502;33;20124;-86
2021/06/19 11:02:58;;;;;;;10.98;3.22;;;;;;;;;;4267646;33;20626;-83
2021/06/19 11:05:45;;;;;;;8.55;2.70;;;;;;;;;;4262055;33;20096;-86
2021/06/19 11:08:17;;;;;;;10.80;2.72;;;;;;;;;;4264440;33;20134;-81
2021/06/19 11:10:49;;;;;;;9.30;2.78;;;;;;;;;;4263030;33;20519;-86
2021/06/19 11:13:31;;;;;;;10.57;3.22;;;;;;;;;;4265336;33;20597;-84
2021/06/19 11:16:06;;;;;;;8.00;2.80;;;;;;;;;;4262515;33;20133;-81
2021/06/19 11:18:52;;;;;;;12.43;3.47;;;;;;;;;;4264985;33;20394;-83
2021/06/19 11:21:27;;;;;;;5.22;2.33;;;;;;;;;;4262597;33;20166;-87
2021/06/19 11:24:02;;;;;;;8.55;2.22;;;;;;;;;;4262397;33;20053;-78
2021/06/19 11:27:02;;;;;;;8.05;2.70;;;;;;;;;;4261421;33;20569;-79
2021/06/19 11:29:38;;;;;;;11.80;2.87;;;;;;;;;;4261076;33;20084;-87
2021/06/19 11:32:23;;;;;;;10.50;3.53;;;;;;;;;;4265374;33;20088;-85
2021/06/19 11:34:55;;;;;;;12.07;3.25;;;;;;;;;;4272289;33;20053;-82
2021/06/19 11:37:47;;;;;;;11.45;3.83;;;;;;;;;;4266556;33;20078;-85
2021/06/19 11:40:26;;;;;;;10.43;3.10;;;;;;;;;;4257989;33;20103;-86
2021/06/19 11:42:58;;;;;;;9.23;3.28;;;;;;;;;;4262670;33;20097;-86
2021/06/19 11:45:27;;;;;;;10.18;2.87;;;;;;;;;;4260234;33;20072;-83
2021/06/19 11:48:02;;;;;;;11.18;3.60;;;;;;;;;;4261928;33;20145;-82
2021/06/19 11:50:31;;;;;;;9.98;3.45;;;;;;;;;;4262755;33;20146;-82
2021/06/19 11:53:27;;;;;;;27.60;4.25;;;;;;;;;;4263569;33;20124;-85
2021/06/19 11:56:08;;;;;;;8.30;3.17;;;;;;;;;;4260850;33;20179;-82
2021/06/19 11:58:42;;;;;;;10.45;2.92;;;;;;;;;;4261737;33;20508;-86
2021/06/19 12:01:11;;;;;;;8.43;2.95;;;;;;;;;;4262730;33;20076;-82
2021/06/19 12:03:43;;;;;;;8.43;2.70;;;;;;;;;;4272560;33;20102;-82
2021/06/19 12:06:11;;;;;;;9.98;2.70;;;;;;;;;;4273607;33;20922;-85
2021/06/19 12:08:40;;;;;;;10.93;3.12;;;;;;;;;;4276527;33;20075;-80
2021/06/19 12:11:09;;;;;;;12.75;2.70;;;;;;;;;;4272655;33;20095;-82
2021/06/19 12:13:38;;;;;;;6.35;2.22;;;;;;;;;;4246926;33;20168;-85
2021/06/19 12:16:10;;;;;;;6.57;2.58;;;;;;;;;;4250754;33;20642;-83
2021/06/19 12:18:41;;;;;;;11.52;3.00;;;;;;;;;;4261038;33;20070;-82
2021/06/19 12:21:12;;;;;;;18.90;3.22;;;;;;;;;;4261451;33;21062;-82
2021/06/19 12:23:44;;;;;;;5.23;2.20;;;;;;;;;;4259994;33;20104;-83
2021/06/19 12:26:14;;;;;;;7.55;2.40;;;;;;;;;;4264926;33;20146;-83
2021/06/19 12:28:44;;;;;;;9.52;2.85;;;;;;;;;;4261832;33;20077;-81
2021/06/19 12:31:14;;;;;;;5.97;2.60;;;;;;;;;;4264249;33;20096;-85
2021/06/19 12:33:44;;;;;;;8.65;2.95;;;;;;;;;;4271749;33;20061;-82
2021/06/19 12:36:13;;;;;;;11.82;3.12;;;;;;;;;;4266442;33;20265;-81
2021/06/19 12:38:45;;;;;;;8.43;3.00;;;;;;;;;;4262798;33;20116;-82
2021/06/19 12:41:13;;;;;;;8.27;2.80;;;;;;;;;;4265416;33;20117;-82
2021/06/19 12:43:51;;;;;;;4.32;2.10;;;;;;;;;;4265812;33;20158;-83
2021/06/19 12:46:24;;;;;;;34.55;4.50;;;;;;;;;;4268274;33;20092;-84
2021/06/19 12:49:05;;;;;;;6.93;3.00;;;;;;;;;;4268372;33;20113;-90
2021/06/19 12:51:37;;;;;;;5.07;2.05;;;;;;;;;;4269362;33;20183;-83
2021/06/19 12:54:21;;;;;;;7.07;2.47;;;;;;;;;;4268697;33;20121;-84
2021/06/19 12:56:53;;;;;;;;;;;;;;;;;;4269918;33;20123;-89
2021/06/19 12:59:21;;;;;;;72.10;8.00;;;;;;;;;;4268141;33;20446;-86
2021/06/19 13:02:03;;;;;;;11.88;2.75;;;;;;;;;;4270602;33;20148;-84
2021/06/19 13:04:32;;;;;;;35.17;4.87;;;;;;;;;;4269798;33;20421;-83
2021/06/19 13:07:18;;;;;;;6.82;2.72;;;;;;;;;;4270235;33;20053;-81
2021/06/19 13:09:50;;;;;;;10.45;2.87;;;;;;;;;;4268959;33;20109;-84
2021/06/19 13:12:22;;;;;;;6.53;2.50;;;;;;;;;;4269081;33;20049;-90
2021/06/19 13:15:07;;;;;;;4.87;2.65;;;;;;;;;;4270782;33;20123;-84
2021/06/19 13:17:45;;;;;;;8.57;3.12;;;;;;;;;;4271039;33;20078;-80
2021/06/19 13:20:23;;;;;;;9.05;2.70;;;;;;;;;;4265778;33;20461;-81
2021/06/19 13:23:03;;;;;;;8.15;2.92;;;;;;;;;;4267587;33;20152;-81
2021/06/19 13:25:53;;;;;;;9.70;2.85;;;;;;;;;;4265564;33;20211;-82
2021/06/19 13:28:40;;;;;;;8.90;2.15;;;;;;;;;;4268304;33;20146;-79
2021/06/19 13:31:13;;;;;;;11.12;2.92;;;;;;;;;;4268130;33;20144;-85
2021/06/19 13:33:42;;;;;;;81.72;8.57;;;;;;;;;;4268174;33;20456;-83
2021/06/19 13:36:17;;;;;;;9.95;2.55;;;;;;;;;;4268288;33;20109;-78
2021/06/19 13:38:51;;;;;;;7.78;2.90;;;;;;;;;;4266818;33;20071;-83
2021/06/19 13:41:27;;;;;;;9.32;2.55;;;;;;;;;;4266452;33;20172;-83
2021/06/19 13:43:58;;;;;;;13.18;3.20;;;;;;;;;;4265877;33;20125;-78
2021/06/19 13:46:30;;;;;;;13.52;3.40;;;;;;;;;;4267150;33;20042;-82
2021/06/19 13:48:59;;;;;;;8.00;2.55;;;;;;;;;;4266171;33;20145;-83
2021/06/19 13:51:31;;;;;;;9.43;2.83;;;;;;;;;;4266971;33;20107;-82
2021/06/19 13:54:03;;;;;;;13.15;2.90;;;;;;;;;;4267911;33;20096;-80
2021/06/19 13:56:32;;;;;;;14.73;3.08;;;;;;;;;;4268900;33;20531;-80
2021/06/19 13:59:03;;;;;;;10.90;2.80;;;;;;;;;;4265644;33;20109;-88
2021/06/19 14:01:34;;;;;;;9.50;3.12;;;;;;;;;;4252612;33;20108;-78
2021/06/19 14:04:06;;;;;;;4.78;2.22;;;;;;;;;;4267125;33;20199;-81
2021/06/19 14:06:37;;;;;;;8.85;2.65;;;;;;;;;;4266105;33;20696;-82
2021/06/19 14:09:09;;;;;;;15.63;3.72;;;;;;;;;;4265292;33;20354;-86
2021/06/19 14:11:38;;;;;;;7.32;2.67;;;;;;;;;;4265575;33;20064;-81
2021/06/19 14:14:07;;;;;;;10.02;2.65;;;;;;;;;;4266196;33;20073;-81
2021/06/19 14:16:35;;;;;;;8.73;2.85;;;;;;;;;;4263567;33;20133;-84
2021/06/19 14:19:07;;;;;;;8.30;2.58;;;;;;;;;;4265874;33;20116;-83
2021/06/19 14:21:39;;;;;;;5.40;2.35;;;;;;;;;;4267904;33;20176;-84
2021/06/19 14:24:10;;;;;;;11.10;2.70;;;;;;;;;;4252391;33;20440;-86
2021/06/19 14:26:41;;;;;;;8.50;2.37;;;;;;;;;;4253024;33;20149;-88
2021/06/19 14:29:12;;;;;;;17.30;2.25;;;;;;;;;;4265712;33;20140;-86
2021/06/19 14:31:43;;;;;;;7.10;2.70;;;;;;;;;;4267204;33;20087;-81
2021/06/19 14:34:11;;;;;;;7.55;2.67;;;;;;;;;;4267111;33;20461;-81
2021/06/19 14:36:40;;;;;;;9.43;2.85;;;;;;;;;;4266994;33;20057;-83
2021/06/19 14:39:10;;;;;;;9.25;2.30;;;;;;;;;;4268305;33;20105;-80
2021/06/19 14:41:41;;;;;;;9.32;2.62;;;;;;;;;;4265092;33;20105;-82
2021/06/19 14:44:09;;;;;;;9.68;2.80;;;;;;;;;;4265756;33;20112;-81
2021/06/19 14:46:40;;;;;;;7.87;3.00;;;;;;;;;;4266738;33;20054;-86
2021/06/19 14:49:11;;;;;;;6.12;2.35;;;;;;;;;;4265886;33;20195;-81
2021/06/19 14:51:40;;;;;;;7.20;2.40;;;;;;;;;;4266630;33;20132;-82
2021/06/19 14:54:08;;;;;;;7.68;2.20;;;;;;;;;;4267153;33;20148;-88
2021/06/19 14:56:38;;;;;;;4.62;2.33;;;;;;;;;;4266439;33;20109;-81
2021/06/19 14:59:09;;;;;;;21.20;3.37;;;;;;;;;;4265906;33;20163;-86
2021/06/19 15:01:38;;;;;;;10.98;2.55;;;;;;;;;;4262658;33;20156;-80
2021/06/19 15:04:08;;;;;;;9.98;2.72;;;;;;;;;;4266534;33;20058;-85
2021/06/19 15:06:37;;;;;;;7.70;2.75;;;;;;;;;;4264842;33;20492;-86
2021/06/19 15:09:13;;;;;;;9.02;3.00;;;;;;;;;;4265329;33;20060;-78
2021/06/19 15:11:44;;;;;;;7.90;1.70;;;;;;;;;;4266157;33;20127;-80
2021/06/19 15:14:14;;;;;;;10.82;2.45;;;;;;;;;;4265282;33;20526;-81
2021/06/19 15:16:43;;;;;;;11.98;2.55;;;;;;;;;;4264313;33;20041;-85
2021/06/19 15:19:11;;;;;;;12.15;2.80;;;;;;;;;;4265555;33;20108;-82
2021/06/19 15:21:42;;;;;;;10.82;2.50;;;;;;;;;;4266794;33;20057;-85
2021/06/19 15:24:10;;;;;;;7.87;2.30;;;;;;;;;;4264665;33;20088;-85
2021/06/19 15:26:39;;;;;;;8.35;2.25;;;;;;;;;;4265827;33;20100;-82
2021/06/19 15:29:22;;;;;;;8.93;2.55;;;;;;;;;;4264321;33;20098;-81
2021/06/19 15:31:50;;;;;;;5.07;2.20;;;;;;;;;;4265496;33;20147;-78
2021/06/19 15:34:21;;;;;;;9.55;2.35;;;;;;;;;;4265448;33;20093;-85
2021/06/19 15:36:49;;;;;;;8.00;2.05;;;;;;;;;;4265703;33;20077;-84
2021/06/19 15:39:18;;;;;;;62.65;6.90;;;;;;;;;;4262625;33;20481;-82
2021/06/19 15:41:47;;;;;;;7.15;2.35;;;;;;;;;;4264604;33;20607;-81
2021/06/19 15:44:17;;;;;;;12.98;2.40;;;;;;;;;;4265533;33;20120;-83
2021/06/19 15:46:49;;;;;;;8.35;2.95;;;;;;;;;;4261418;33;21644;-82
2021/06/19 15:49:18;;;;;;;8.73;2.33;;;;;;;;;;4264547;33;20157;-81
2021/06/19 15:51:47;;;;;;;5.90;2.08;;;;;;;;;;4264638;33;20319;-78
2021/06/19 15:54:15;;;;;;;7.22;1.80;;;;;;;;;;4265690;33;20172;-82
2021/06/19 15:56:46;;;;;;;7.10;2.58;;;;;;;;;;4264507;33;20132;-83
2021/06/19 15:59:17;;;;;;;4.75;2.05;;;;;;;;;;4264883;33;20089;-81
2021/06/19 16:01:48;;;;;;;6.18;2.35;;;;;;;;;;4264170;33;20087;-79
2021/06/19 16:04:17;;;;;;;9.40;2.40;;;;;;;;;;4265435;33;20117;-82
2021/06/19 16:06:47;;;;;;;5.43;2.10;;;;;;;;;;4264974;33;20916;-82
2021/06/19 16:09:16;;;;;;;8.07;2.40;;;;;;;;;;4261278;33;20572;-84
2021/06/19 16:11:44;;;;;;;4.57;2.03;;;;;;;;;;4265902;33;20413;-83
2021/06/19 16:14:13;;;;;;;11.48;2.60;;;;;;;;;;4264384;33;20155;-83
2021/06/19 16:16:42;;;;;;;7.30;2.50;;;;;;;;;;4265188;33;20499;-83
2021/06/19 16:19:14;;;;;;;3.33;1.70;;;;;;;;;;4265830;33;20053;-83
2021/06/19 16:21:42;;;;;;;6.60;2.22;;;;;;;;;;4264528;33;20050;-82
2021/06/19 16:24:10;;;;;;;5.05;1.90;;;;;;;;;;4263794;33;20306;-90
2021/06/19 16:26:42;;;;;;;5.80;2.08;;;;;;;;;;4264475;33;20456;-84
2021/06/19 16:29:13;;;;;;;9.05;2.65;;;;;;;;;;4266749;33;20079;-87
2021/06/19 16:31:44;;;;;;;10.80;2.53;;;;;;;;;;4262224;33;20057;-78
2021/06/19 16:34:15;;;;;;;15.43;3.08;;;;;;;;;;4263631;33;20582;-82
2021/06/19 16:36:44;;;;;;;5.32;2.22;;;;;;;;;;4263211;33;20634;-81
2021/06/19 16:39:15;;;;;;;8.90;2.40;;;;;;;;;;4264405;33;20106;-85
2021/06/19 16:41:47;;;;;;;7.82;2.45;;;;;;;;;;4265881;33;20645;-79
2021/06/19 16:44:18;;;;;;;5.03;2.47;;;;;;;;;;4264022;33;20154;-84
2021/06/19 16:46:49;;;;;;;9.32;2.70;;;;;;;;;;4265154;33;20069;-81
2021/06/19 16:49:19;;;;;;;8.23;2.65;;;;;;;;;;4266567;33;20167;-85
2021/06/19 16:51:50;;;;;;;6.93;2.45;;;;;;;;;;4265622;33;20140;-82
2021/06/19 16:54:24;;;;;;;9.77;3.00;;;;;;;;;;4264962;33;20486;-79
2021/06/19 16:56:55;;;;;;;5.50;2.30;;;;;;;;;;4264203;33;20092;-83
2021/06/19 16:59:26;;;;;;;9.25;2.55;;;;;;;;;;4265146;33;20103;-83
2021/06/19 17:01:57;;;;;;;9.50;2.20;;;;;;;;;;4267250;33;20132;-82
2021/06/19 17:04:28;;;;;;;7.97;2.60;;;;;;;;;;4264399;33;20696;-82
2021/06/19 17:06:59;;;;;;;10.90;2.90;;;;;;;;;;4264955;33;20097;-81
2021/06/19 17:09:29;;;;;;;11.75;2.62;;;;;;;;;;4262456;33;20531;-82
2021/06/19 17:12:01;;;;;;;8.55;2.47;;;;;;;;;;4263009;33;20088;-81
2021/06/19 17:14:29;;;;;;;3.67;1.80;;;;;;;;;;4265546;33;20173;-82
2021/06/19 17:16:58;;;;;;;8.38;2.12;;;;;;;;;;4262882;33;20081;-80
2021/06/19 17:19:31;;;;;;;8.25;2.28;;;;;;;;;;4263399;33;20041;-83
2021/06/19 17:21:59;;;;;;;4.55;1.92;;;;;;;;;;4263661;33;20152;-81
2021/06/19 17:24:28;;;;;;;12.65;3.30;;;;;;;;;;4263916;33;21055;-80